SBCT/CWB METAR and TAF weather

Enter ICAO airport designator
Station Type Date Time Source
SBCT METAR 2024/04/18 07:00 UTC NOAA

SBCT 180700Z 22003KT 9000 FEW010 12/12 Q1020


Station Type Date Time Source
SBCT Decoded METAR 2024/04/18 07:00 UTC NOAA

Curitiba Aeroporto , Brazil (SBCT) 25-31S 049-10W 908M
Apr 18, 2024 - 03:00 AM EDT / 2024.04.18 0700 UTC
Wind: from the SW (220 degrees) at 3 MPH (3 KT):0
Visibility: 5 mile(s):0
Sky conditions: mostly clear
Temperature: 53 F (12 C)
Dew Point: 53 F (12 C)
Relative Humidity: 100%
Pressure (altimeter): 30.12 in. Hg (1020 hPa)
ob: SBCT 180700Z 22003KT 9000 FEW010 12/12 Q1020
cycle: 7

Station Type Date Time Source
SBCT TAF 2024/04/18 18:32 UTC NOAA